Accueil
METAR-TAF:

METAR-TAF

Aéroports :

Benson, Angleterre

latitude: 51-37N, longitude: 001-05W, altitude: 63 m

Observation

Le bulletin a été fait il y a 30 minutes, à 19:50 UTC
Vent 8 kt de est/sud-est
Température 3°C
Humidité 87%
Pression 1017 hPa
Visibilité 10 km ou plus
pas de nuages en-dessous de 1500 mètres et pas de cumulonimbus.

METAR: EGUB 211950Z 12008KT CAVOK 03/01 Q1017 BLU NOSIG

Heure: 20:20 (20:20 UTC)

Prévision

Le bulletin a été fait il y a 3 heures et 44 minutes, à 16:36 UTC
Prévision valable du 21 à 18 UTC au 21 à 24 UTC
Vent 6 kt de est
Visibilité 10 km ou plus
Nuages épars à une hauteur de 3500 ft
Evoluant progressivement
du 21 à 20 UTC au 21 à 22 UTC
Visibilité: 7000 m
brume sèche
Probabilité 40%
du 21 à 22 UTC au 21 à 24 UTC
Visibilité: 4000 m
brume

TAF: EGUB 211636Z 2118/2124 10006KT 9999 SCT035 BECMG 2120/2122 7000 HZ PROB40 2122/2124 4000 BR

Observations et prévisions météorologiques de plus de 4000 aéroports (messages METAR et TAF).

Les stations disponibles sont représentées par des disques jaunes et rouges sur la carte.

Passer la souris dessus pour voir le nom de la station.

Cliquer dessus pour voir les observations et prévisions météorologiques.

Pour changer de carte: cliquez sur les boutons verts avec une croix noire pour zoomer, sur le bouton vert avec un tiret pour effectuer un zoom arrière, ou sur les flèches vertes pour les cartes adjacentes.


METAR-TAF: